Terminal Aerodrome Forecast
Issued by NWS

Home | Current Version | Previous Version | Text Only | Print | Product List | Glossary On
Versions: 1 2 3 4 5 6 7 8 9 10 11 12 13 14 15 16 17 18 19 20 21 22 23 24 25 26 27 28 29
000
FTUS42 KCAE 011100
TAFCUB
TAF
KCUB 011134Z 0112/0212 VRB03KT 5SM BR OVC006
     FM011500 VRB04KT P6SM OVC015
     FM011900 VRB04KT P6SM VCSH SCT025 OVC050
     FM020500 03004KT P6SM OVC015=

USA.gov is the U.S. government's official web portal to all federal, state and local government web resources and services.